Time;durP1;ratioP1;P1;durP2;ratioP2;P2;SDS_P1;SDS_P2;PMS_P1;PMS_P2;Temp;Humidity;BMP_temperature;BMP_pressure;BME280_temperature;BME280_humidity;BME280_pressure;Samples;Min_cycle;Max_cycle;Signal;HPM_P1;HPM_P2
2021/01/02 00:02:08;;;;;;;80.07;31.50;;;;;;;-0.32;82.25;98647.53;2161272;82;21265;-65
2021/01/02 00:05:10;;;;;;;78.78;28.90;;;;;;;-0.33;82.29;98648.40;2161496;82;21123;-64
2021/01/02 00:08:13;;;;;;;74.50;30.95;;;;;;;-0.25;82.41;98653.81;2161302;82;21714;-65
2021/01/02 00:11:15;;;;;;;;;;;;;;;-0.24;82.19;98652.10;2163763;82;21322;-64
2021/01/02 00:14:17;;;;;;;75.50;31.27;;;;;;;-0.24;82.03;98653.39;2161607;82;20221;-64
2021/01/02 00:17:19;;;;;;;75.05;29.75;;;;;;;-0.36;82.14;98656.61;2161223;82;21301;-65
2021/01/02 00:20:22;;;;;;;81.05;29.07;;;;;;;-0.31;82.35;98660.38;2161462;82;21301;-64
2021/01/02 00:23:24;;;;;;;78.62;29.85;;;;;;;-0.28;82.36;98664.19;2161697;82;21306;-65
2021/01/02 00:26:26;;;;;;;73.55;27.93;;;;;;;-0.22;82.17;98676.11;2161447;82;21313;-65
2021/01/02 00:29:28;;;;;;;73.67;28.60;;;;;;;-0.18;82.28;98673.88;2167372;81;21293;-65
2021/01/02 00:32:30;;;;;;;74.12;27.93;;;;;;;-0.17;82.03;98680.75;2179053;82;21139;-64
2021/01/02 00:35:35;;;;;;;72.62;28.02;;;;;;;-0.14;82.22;98674.66;2178575;82;21312;-64
2021/01/02 00:38:36;;;;;;;72.15;28.77;;;;;;;-0.14;81.79;98680.69;2178320;82;21301;-65
2021/01/02 00:41:38;;;;;;;76.22;30.52;;;;;;;-0.15;81.79;98678.97;2178617;82;21729;-65
2021/01/02 00:44:40;;;;;;;73.70;29.00;;;;;;;-0.21;81.57;98678.66;2178619;82;21276;-65
2021/01/02 00:47:43;;;;;;;70.20;28.07;;;;;;;-0.28;81.62;98686.09;2178629;82;21265;-68
2021/01/02 00:50:45;;;;;;;;;;;;;;;-0.35;81.81;98688.38;2181034;82;21178;-67
2021/01/02 00:53:47;;;;;;;81.43;31.00;;;;;;;-0.32;82.13;98696.50;2178984;82;20488;-66
2021/01/02 00:56:50;;;;;;;79.80;31.93;;;;;;;-0.21;82.18;98699.73;2178625;82;21260;-65
2021/01/02 00:59:52;;;;;;;79.72;29.72;;;;;;;-0.12;81.86;98703.85;2178963;82;21567;-65
2021/01/02 01:02:54;;;;;;;82.47;30.45;;;;;;;-0.17;81.78;98716.84;2178560;82;21301;-67
2021/01/02 01:05:56;;;;;;;81.87;31.27;;;;;;;-0.13;81.97;98718.91;2178828;82;21697;-68
2021/01/02 01:08:58;;;;;;;77.00;29.40;;;;;;;-0.18;81.81;98719.84;2178566;82;21277;-68
2021/01/02 01:12:00;;;;;;;84.20;32.98;;;;;;;-0.12;81.90;98716.75;2178725;82;21752;-68
2021/01/02 01:15:02;;;;;;;86.10;32.35;;;;;;;-0.07;81.83;98721.35;2178843;82;21288;-67
2021/01/02 01:18:05;;;;;;;87.80;34.70;;;;;;;-0.13;81.61;98720.20;2178702;82;21720;-69
2021/01/02 01:21:07;;;;;;;93.70;31.45;;;;;;;-0.18;81.66;98725.45;2178967;82;21142;-70
2021/01/02 01:24:12;;;;;;;77.42;29.67;;;;;;;-0.19;81.77;98730.19;2178859;82;21277;-69
2021/01/02 01:27:14;;;;;;;81.45;30.43;;;;;;;-0.26;81.62;98726.02;2178665;82;21717;-67
2021/01/02 01:30:16;;;;;;;;;;;;;;;-0.22;81.76;98725.09;2181105;81;21562;-66
2021/01/02 01:33:18;;;;;;;75.80;30.07;;;;;;;-0.25;81.60;98731.14;2179075;82;20181;-67
2021/01/02 01:36:20;;;;;;;81.63;30.23;;;;;;;-0.29;81.75;98726.92;2178820;82;21733;-67
2021/01/02 01:39:23;;;;;;;82.08;32.40;;;;;;;-0.32;81.95;98726.98;2178574;82;21272;-70
2021/01/02 01:42:25;;;;;;;87.97;32.88;;;;;;;-0.37;81.79;98720.63;2150865;82;21748;-65
2021/01/02 01:45:27;;;;;;;86.47;33.38;;;;;;;-0.34;82.11;98718.44;2178583;82;21150;-64
2021/01/02 01:48:29;;;;;;;83.60;32.35;;;;;;;-0.32;82.00;98722.28;2178506;82;21280;-64
2021/01/02 01:51:31;;;;;;;82.02;31.57;;;;;;;-0.29;82.12;98717.90;2178746;82;21317;-64
2021/01/02 01:54:34;;;;;;;86.72;33.23;;;;;;;-0.29;82.03;98720.48;2178566;82;21288;-64
2021/01/02 01:57:36;;;;;;;88.00;32.90;;;;;;;-0.30;82.06;98714.94;2178956;82;21186;-64
2021/01/02 02:00:38;;;;;;;87.97;31.70;;;;;;;-0.29;81.92;98717.06;2178576;82;21265;-64
2021/01/02 02:03:40;;;;;;;76.35;29.87;;;;;;;-0.25;82.23;98716.97;2178794;82;21708;-64
2021/01/02 02:06:42;;;;;;;72.90;29.42;;;;;;;-0.18;82.18;98715.13;2179029;82;21138;-64
2021/01/02 02:09:44;;;;;;;75.28;27.58;;;;;;;-0.15;81.89;98711.66;2178721;82;21167;-64
2021/01/02 02:12:47;;;;;;;76.22;29.37;;;;;;;-0.20;81.61;98706.14;2178863;82;21265;-64
2021/01/02 02:15:49;;;;;;;77.55;29.37;;;;;;;-0.26;81.79;98716.58;2178741;82;21279;-67
2021/01/02 02:18:51;;;;;;;71.45;28.77;;;;;;;-0.16;81.79;98717.23;2178979;82;21444;-64
2021/01/02 02:21:53;;;;;;;79.75;30.52;;;;;;;-0.18;81.89;98717.71;2178752;82;21725;-64
2021/01/02 02:24:55;;;;;;;73.40;28.38;;;;;;;-0.22;81.46;98723.34;2178989;82;21304;-64
2021/01/02 02:27:57;;;;;;;67.53;26.80;;;;;;;-0.26;81.54;98718.29;2178478;82;21312;-64
2021/01/02 02:31:00;;;;;;;67.82;26.02;;;;;;;-0.34;81.66;98712.00;2146209;82;21559;-65
2021/01/02 02:34:02;;;;;;;72.03;27.05;;;;;;;-0.42;81.64;98708.70;2174362;82;21261;-65
2021/01/02 02:37:05;;;;;;;67.37;26.65;;;;;;;-0.50;81.85;98708.86;2173991;82;21756;-65
2021/01/02 02:40:07;;;;;;;74.42;27.50;;;;;;;-0.51;81.90;98718.74;2174342;82;21296;-65
2021/01/02 02:43:09;;;;;;;71.28;26.82;;;;;;;-0.50;82.03;98709.27;2174375;81;21285;-65
2021/01/02 02:46:11;;;;;;;71.70;26.90;;;;;;;-0.61;82.06;98718.50;2174001;82;21285;-65
2021/01/02 02:49:13;;;;;;;69.45;25.23;;;;;;;-0.67;82.06;98717.33;2173833;82;21272;-64
2021/01/02 02:52:15;;;;;;;67.47;26.52;;;;;;;-0.72;82.26;98719.54;2173881;82;21304;-65
2021/01/02 02:55:18;;;;;;;70.72;26.48;;;;;;;-0.71;82.32;98713.94;2173965;82;21741;-64
2021/01/02 02:58:20;;;;;;;63.48;25.02;;;;;;;-0.83;82.32;98716.70;2174085;82;21272;-64
2021/01/02 03:01:22;;;;;;;68.78;25.90;;;;;;;-0.82;82.44;98711.98;2174353;82;21277;-64
2021/01/02 03:04:24;;;;;;;65.83;25.48;;;;;;;-0.84;82.55;98708.59;2173830;82;21752;-66
2021/01/02 03:07:26;;;;;;;72.90;27.48;;;;;;;-0.87;82.59;98712.90;2174310;82;21265;-65
2021/01/02 03:10:28;;;;;;;74.82;28.02;;;;;;;-0.84;82.77;98718.44;2174022;82;21296;-69
2021/01/02 03:13:30;;;;;;;73.80;28.27;;;;;;;-0.86;82.77;98721.50;2173873;82;21147;-65
2021/01/02 03:16:33;;;;;;;78.57;29.15;;;;;;;-0.82;82.78;98715.42;2174102;82;21277;-64
2021/01/02 03:19:35;;;;;;;75.78;29.42;;;;;;;-0.86;82.65;98724.07;2174091;82;21154;-65
2021/01/02 03:22:37;;;;;;;79.45;27.95;;;;;;;-0.94;82.72;98716.90;2174208;82;21293;-64
2021/01/02 03:25:39;;;;;;;79.30;29.60;;;;;;;-1.01;82.73;98714.01;2173876;82;21277;-64
2021/01/02 03:28:41;;;;;;;71.25;26.40;;;;;;;-1.06;83.04;98726.52;2174373;82;21692;-65
2021/01/02 03:31:43;;;;;;;74.40;26.82;;;;;;;-1.02;83.01;98717.45;2163656;81;21313;-64
2021/01/02 03:34:46;;;;;;;72.25;27.05;;;;;;;-1.09;82.86;98718.84;2161389;82;21745;-64
2021/01/02 03:37:48;;;;;;;78.05;28.47;;;;;;;-1.08;83.07;98724.83;2161622;82;21270;-64
2021/01/02 03:40:50;;;;;;;72.45;26.15;;;;;;;-1.05;83.05;98728.22;2161617;82;21702;-63
2021/01/02 03:43:52;;;;;;;74.22;29.12;;;;;;;-1.06;83.12;98725.22;2161759;82;21285;-64
2021/01/02 03:46:54;;;;;;;74.30;27.93;;;;;;;-0.96;82.99;98724.65;2161602;82;21761;-69
2021/01/02 03:49:57;;;;;;;79.55;28.20;;;;;;;-1.00;82.74;98729.43;2161268;82;21285;-68
2021/01/02 03:52:59;;;;;;;76.82;29.15;;;;;;;-0.98;82.94;98726.83;2161638;82;21690;-68
2021/01/02 03:56:02;;;;;;;80.15;28.77;;;;;;;-0.96;82.97;98724.65;2161654;82;21265;-71
2021/01/02 03:59:04;;;;;;;77.35;28.60;;;;;;;-0.91;82.97;98729.27;2161245;82;21265;-65
2021/01/02 04:02:06;;;;;;;77.90;28.20;;;;;;;-0.81;82.85;98727.85;2161842;82;21285;-71
2021/01/02 04:05:08;;;;;;;74.90;27.95;;;;;;;-0.79;82.77;98729.53;2161631;82;21274;-65
2021/01/02 04:08:10;;;;;;;72.45;27.65;;;;;;;-0.70;82.78;98720.80;2161480;82;21283;-64
2021/01/02 04:11:12;;;;;;;74.37;28.00;;;;;;;-0.69;82.57;98726.34;2161547;82;21703;-64
2021/01/02 04:14:15;;;;;;;75.87;27.22;;;;;;;-0.67;82.48;98723.77;2161621;82;21286;-64
2021/01/02 04:17:17;;;;;;;67.35;25.65;;;;;;;-0.63;82.65;98715.95;2161325;82;21575;-64
2021/01/02 04:20:19;;;;;;;68.40;26.00;;;;;;;-0.57;82.29;98713.26;2161592;82;21253;-64
2021/01/02 04:23:21;;;;;;;71.53;28.52;;;;;;;-0.54;82.33;98726.53;2161488;82;21574;-64
2021/01/02 04:26:24;;;;;;;68.90;24.98;;;;;;;-0.58;82.15;98721.85;2161375;82;21258;-65
2021/01/02 04:29:26;;;;;;;63.33;24.12;;;;;;;-0.58;82.27;98727.01;2161299;82;21745;-65
2021/01/02 04:32:28;;;;;;;73.57;27.48;;;;;;;-0.59;82.20;98729.20;2178761;81;21119;-64
2021/01/02 04:35:30;;;;;;;67.05;25.77;;;;;;;-0.57;82.49;98735.61;2178783;82;21149;-65
2021/01/02 04:38:32;;;;;;;66.20;25.55;;;;;;;-0.44;82.25;98743.98;2178632;82;21768;-65
2021/01/02 04:41:35;;;;;;;71.42;28.32;;;;;;;-0.45;82.13;98737.95;2179100;82;21166;-65
2021/01/02 04:44:37;;;;;;;68.20;27.93;;;;;;;-0.42;82.12;98741.76;2178568;82;21300;-64
2021/01/02 04:47:39;;;;;;;74.40;28.05;;;;;;;-0.40;82.03;98749.05;2178620;82;21277;-64
2021/01/02 04:50:41;;;;;;;71.02;26.50;;;;;;;-0.35;82.05;98752.37;2178633;82;21276;-64
2021/01/02 04:53:43;;;;;;;76.37;27.90;;;;;;;-0.32;81.80;98748.89;2178956;82;21140;-64
2021/01/02 04:56:45;;;;;;;76.57;28.20;;;;;;;-0.37;82.13;98748.98;2178597;82;21257;-64
2021/01/02 04:59:48;;;;;;;78.90;28.60;;;;;;;-0.31;82.28;98753.63;2179069;82;21131;-65
2021/01/02 05:02:50;;;;;;;77.20;28.85;;;;;;;-0.27;82.11;98755.28;2178623;82;21253;-64
2021/01/02 05:05:52;;;;;;;81.42;29.92;;;;;;;-0.24;82.10;98742.33;2178830;82;21701;-64
2021/01/02 05:08:54;;;;;;;74.50;28.92;;;;;;;-0.20;81.91;98742.69;2178824;82;21273;-65
2021/01/02 05:11:56;;;;;;;81.65;29.75;;;;;;;-0.16;82.17;98749.91;2178751;82;21308;-64
2021/01/02 05:14:58;;;;;;;80.67;30.70;;;;;;;-0.12;81.81;98745.11;2178591;82;21257;-64
2021/01/02 05:18:01;;;;;;;75.65;28.65;;;;;;;-0.16;81.68;98751.20;2178695;82;21562;-64
2021/01/02 05:21:03;;;;;;;84.85;31.02;;;;;;;-0.15;82.10;98761.48;2179052;82;21396;-64
2021/01/02 05:24:05;;;;;;;82.05;29.55;;;;;;;-0.02;81.89;98767.26;2178560;82;21146;-65
2021/01/02 05:27:08;;;;;;;85.47;30.72;;;;;;;0.07;81.96;98768.81;2178672;82;21281;-64
2021/01/02 05:30:11;;;;;;;76.82;28.30;;;;;;;0.07;81.60;98772.67;2176375;81;21290;-64
2021/01/02 05:33:13;;;;;;;70.57;27.75;;;;;;;-0.03;81.16;98766.42;2161299;82;21694;-64
2021/01/02 05:36:15;;;;;;;77.05;28.23;;;;;;;-0.21;81.52;98770.17;2161295;82;21305;-68
2021/01/02 05:39:17;;;;;;;85.47;31.65;;;;;;;-0.25;81.57;98775.42;2161373;82;21709;-67
2021/01/02 05:42:19;;;;;;;78.75;29.50;;;;;;;-0.26;81.95;98780.16;2161153;82;21111;-66
2021/01/02 05:45:21;;;;;;;78.37;28.92;;;;;;;-0.21;82.19;98779.64;2161296;82;21733;-66
2021/01/02 05:48:23;;;;;;;82.92;30.92;;;;;;;-0.19;81.94;98775.30;2161156;82;21163;-66
2021/01/02 05:51:25;;;;;;;79.97;29.77;;;;;;;-0.24;82.04;98779.70;2161299;82;21329;-68
2021/01/02 05:54:27;;;;;;;78.15;29.65;;;;;;;-0.19;82.17;98777.46;2161583;82;21275;-68
2021/01/02 05:57:29;;;;;;;79.97;30.00;;;;;;;-0.19;82.16;98771.02;2161366;82;21288;-67
2021/01/02 06:00:31;;;;;;;89.07;32.23;;;;;;;-0.12;82.24;98774.77;2161151;82;21128;-66
2021/01/02 06:03:35;;;;;;;86.32;31.87;;;;;;;-0.15;81.99;98774.82;2161621;82;21135;-65
2021/01/02 06:06:37;;;;;;;76.00;27.75;;;;;;;-0.18;82.20;98775.72;2161420;82;21281;-68
2021/01/02 06:09:40;;;;;;;79.35;30.92;;;;;;;-0.06;82.23;98776.80;2161117;82;21631;-65
2021/01/02 06:12:42;;;;;;;83.20;31.40;;;;;;;-0.11;82.11;98775.18;2161259;82;21702;-68
2021/01/02 06:15:45;;;;;;;77.27;28.17;;;;;;;-0.12;82.39;98773.47;2161567;82;21313;-67
2021/01/02 06:18:47;;;;;;;77.05;28.02;;;;;;;-0.19;82.15;98738.78;2161332;82;21265;-70
2021/01/02 06:21:49;;;;;;;92.17;32.93;;;;;;;-0.25;82.60;98755.63;2161089;82;21135;-68
2021/01/02 06:24:51;;;;;;;81.55;29.42;;;;;;;-0.11;82.71;98772.60;2161240;82;21706;-65
2021/01/02 06:27:53;;;;;;;74.45;26.73;;;;;;;-0.07;82.54;98770.34;2161558;82;21285;-64
2021/01/02 06:30:55;;;;;;;69.30;26.37;;;;;;;-0.04;82.50;98780.63;2166496;81;21718;-64
2021/01/02 06:33:57;;;;;;;72.37;26.48;;;;;;;-0.03;82.62;98775.45;2178772;82;21261;-65
2021/01/02 06:37:00;;;;;;;69.85;26.73;;;;;;;0.05;82.73;98784.77;2178593;82;21587;-64
2021/01/02 06:40:02;;;;;;;67.30;25.80;;;;;;;0.16;82.39;98791.86;2178968;82;21163;-65
2021/01/02 06:43:05;;;;;;;61.25;24.25;;;;;;;0.14;82.47;98787.16;2178795;82;21174;-64
2021/01/02 06:46:07;;;;;;;62.70;24.25;;;;;;;0.14;82.30;98788.02;2178626;82;21704;-64
2021/01/02 06:49:09;;;;;;;62.55;23.67;;;;;;;0.14;82.34;98780.29;2178471;82;21265;-64
2021/01/02 06:52:11;;;;;;;66.60;25.85;;;;;;;0.21;82.40;98779.70;2178650;82;21673;-66
2021/01/02 06:55:13;;;;;;;62.25;23.27;;;;;;;0.19;82.27;98781.48;2178504;82;21253;-64
2021/01/02 06:58:16;;;;;;;59.00;23.22;;;;;;;0.17;82.39;98779.35;2178328;82;21717;-66
2021/01/02 07:01:19;;;;;;;65.30;24.82;;;;;;;0.15;82.27;98775.97;2178447;82;21264;-65
2021/01/02 07:04:21;;;;;;;64.75;25.15;;;;;;;0.23;82.82;98788.28;2178579;82;21289;-65
2021/01/02 07:07:23;;;;;;;68.28;24.23;;;;;;;0.29;82.31;98790.73;2178920;82;21142;-67
2021/01/02 07:10:25;;;;;;;58.42;23.67;;;;;;;0.23;82.34;98778.38;2178472;82;21804;-68
2021/01/02 07:13:27;;;;;;;62.88;23.90;;;;;;;0.22;82.62;98784.00;2178910;82;21134;-66
2021/01/02 07:16:30;;;;;;;;;;;;;;;0.27;82.47;98794.22;2180946;82;21265;-65
2021/01/02 07:19:32;;;;;;;58.07;24.70;;;;;;;0.27;82.48;98789.89;2179047;82;20121;-65
2021/01/02 07:22:34;;;;;;;64.17;25.92;;;;;;;0.23;82.46;98796.44;2178611;82;21651;-66
2021/01/02 07:25:37;;;;;;;83.30;33.73;;;;;;;0.28;82.81;98798.51;2178714;82;21717;-65
2021/01/02 07:28:41;;;;;;;68.05;26.68;;;;;;;0.39;82.73;98806.02;2178450;82;21262;-65
2021/01/02 07:31:43;;;;;;;58.10;22.15;;;;;;;0.36;82.56;98803.50;2178398;81;21162;-65
2021/01/02 07:34:47;;;;;;;66.87;25.80;;;;;;;0.36;82.61;98803.08;2178612;82;21268;-65
2021/01/02 07:37:52;;;;;;;62.65;24.82;;;;;;;0.43;82.69;98800.79;2178556;82;21701;-64
2021/01/02 07:40:53;;;;;;;71.75;29.05;;;;;;;0.50;82.48;98802.78;2178498;82;21752;-65
2021/01/02 07:43:55;;;;;;;64.22;26.95;;;;;;;0.53;82.46;98814.33;2178670;82;21316;-64
2021/01/02 07:46:57;;;;;;;79.15;31.97;;;;;;;0.54;82.52;98812.63;2178603;82;21753;-67
2021/01/02 07:49:59;;;;;;;92.33;37.08;;;;;;;0.58;82.53;98818.97;2178616;82;21740;-65
2021/01/02 07:53:02;;;;;;;58.95;23.83;;;;;;;0.68;82.53;98819.64;2178695;82;21292;-66
2021/01/02 07:56:04;;;;;;;59.50;22.37;;;;;;;0.69;82.28;98819.60;2178653;82;21744;-64
2021/01/02 07:59:07;;;;;;;58.48;23.47;;;;;;;0.67;82.45;98816.19;2178509;82;21744;-64
2021/01/02 08:02:09;;;;;;;56.05;22.93;;;;;;;0.60;82.40;98816.36;2178951;82;21146;-65
2021/01/02 08:05:11;;;;;;;53.73;22.80;;;;;;;0.61;82.84;98824.52;2178704;82;21289;-65
2021/01/02 08:08:13;;;;;;;55.25;22.27;;;;;;;0.63;82.78;98817.16;2178455;82;21155;-65
2021/01/02 08:11:16;;;;;;;57.78;22.70;;;;;;;0.65;82.92;98820.55;2178307;82;21312;-65
2021/01/02 08:14:19;;;;;;;56.45;22.50;;;;;;;0.63;82.96;98817.16;2178665;82;21312;-64
2021/01/02 08:17:21;;;;;;;58.42;25.12;;;;;;;0.60;83.04;98820.23;2179077;82;21166;-64
2021/01/02 08:20:24;;;;;;;55.70;23.92;;;;;;;0.65;83.33;98830.88;2178673;82;21566;-68
2021/01/02 08:23:26;;;;;;;;;;;;;;;0.71;82.99;98838.93;2181176;82;21717;-66
2021/01/02 08:26:28;;;;;;;59.67;23.47;;;;;;;0.71;83.08;98838.09;2178687;82;20221;-64
2021/01/02 08:29:30;;;;;;;64.95;24.55;;;;;;;0.69;83.08;98834.25;2178569;82;21721;-63
2021/01/02 08:32:33;;;;;;;61.77;24.85;;;;;;;0.63;83.14;98831.78;2167332;81;21282;-66
2021/01/02 08:35:35;;;;;;;53.08;22.50;;;;;;;0.64;83.22;98836.91;2161196;82;21306;-65
2021/01/02 08:38:37;;;;;;;54.33;23.12;;;;;;;0.70;83.19;98830.77;2161195;82;21269;-68
2021/01/02 08:41:39;;;;;;;56.28;24.15;;;;;;;0.68;83.10;98839.84;2161349;82;21710;-66
2021/01/02 08:44:41;;;;;;;58.10;23.40;;;;;;;0.68;83.21;98859.20;2161220;82;21278;-67
2021/01/02 08:47:43;;;;;;;57.00;23.57;;;;;;;0.78;83.26;98857.28;2161307;82;21705;-64
2021/01/02 08:50:46;;;;;;;55.55;22.52;;;;;;;0.92;83.18;98862.59;2161059;82;21297;-64
2021/01/02 08:53:48;;;;;;;57.13;23.32;;;;;;;0.96;82.96;98858.65;2161357;82;21302;-70
2021/01/02 08:56:51;;;;;;;57.40;23.65;;;;;;;0.98;82.94;98859.45;2161212;82;21127;-66
2021/01/02 08:59:53;;;;;;;57.60;23.57;;;;;;;1.03;82.87;98867.97;2161297;82;21694;-67
2021/01/02 09:02:56;;;;;;;;;;;;;;;1.08;82.88;98865.70;2163663;82;21116;-65
2021/01/02 09:05:59;;;;;;;53.60;22.98;;;;;;;1.13;82.77;98859.55;2161306;82;20162;-64
2021/01/02 09:09:01;;;;;;;53.75;23.57;;;;;;;1.24;82.72;98855.90;2161169;82;21618;-64
2021/01/02 09:12:03;;;;;;;54.38;23.05;;;;;;;1.31;82.68;98861.34;2161184;82;21136;-65
2021/01/02 09:15:05;;;;;;;56.63;22.90;;;;;;;1.43;82.59;98866.20;2161649;82;21298;-64
2021/01/02 09:18:07;;;;;;;74.40;30.70;;;;;;;1.60;82.53;98867.56;2161158;82;21269;-64
2021/01/02 09:21:10;;;;;;;66.05;26.82;;;;;;;1.68;82.48;98864.33;2161547;82;21290;-64
2021/01/02 09:24:12;;;;;;;67.85;27.02;;;;;;;1.76;82.04;98871.92;2161179;82;21119;-66
2021/01/02 09:27:14;;;;;;;56.42;22.10;;;;;;;1.80;82.14;98870.95;2161386;82;21698;-69
2021/01/02 09:30:16;;;;;;;57.85;23.02;;;;;;;1.79;81.89;98874.42;2140419;82;21741;-65
2021/01/02 09:33:18;;;;;;;53.30;22.20;;;;;;;1.77;82.00;98873.59;2161061;81;21115;-65
2021/01/02 09:36:21;;;;;;;54.03;22.22;;;;;;;1.75;81.94;98870.20;2161264;82;21725;-65
2021/01/02 09:39:23;;;;;;;;;;;;;;;1.77;82.06;98869.72;2164066;82;21270;-65
2021/01/02 09:42:26;;;;;;;54.77;22.50;;;;;;;1.87;81.94;98865.58;2161183;82;20123;-64
2021/01/02 09:45:28;;;;;;;58.20;22.87;;;;;;;1.99;82.12;98871.34;2161368;82;21293;-66
2021/01/02 09:48:30;;;;;;;53.85;22.45;;;;;;;2.10;82.18;98867.17;2161130;82;21132;-67
2021/01/02 09:51:32;;;;;;;51.10;21.05;;;;;;;2.22;81.90;98870.74;2161227;82;21306;-64
2021/01/02 09:54:34;;;;;;;53.48;21.87;;;;;;;2.29;81.79;98867.56;2161163;82;21151;-64
2021/01/02 09:57:37;;;;;;;53.15;22.20;;;;;;;2.37;81.89;98866.46;2161135;82;21116;-66
2021/01/02 10:00:40;;;;;;;52.25;22.13;;;;;;;2.48;81.70;98861.43;2161227;82;21709;-64
2021/01/02 10:03:42;;;;;;;;;;;;;;;2.52;81.55;98860.00;2163725;82;21746;-64
2021/01/02 10:06:45;;;;;;;53.67;21.40;;;;;;;2.45;81.07;98866.70;2161243;82;20202;-64
2021/01/02 10:09:47;;;;;;;52.80;22.60;;;;;;;2.34;81.22;98870.86;2161513;82;21298;-69
2021/01/02 10:12:49;;;;;;;53.25;21.30;;;;;;;2.28;81.50;98868.44;2161577;82;21111;-65
2021/01/02 10:15:51;;;;;;;54.27;22.35;;;;;;;2.18;81.18;98856.19;2161072;82;21147;-67
2021/01/02 10:18:53;;;;;;;54.40;23.35;;;;;;;2.13;81.48;98869.70;2161108;82;21143;-70
2021/01/02 10:21:55;;;;;;;53.60;22.42;;;;;;;2.08;81.61;98877.14;2161337;82;21729;-71
2021/01/02 10:24:59;;;;;;;53.75;22.17;;;;;;;2.09;81.82;98865.04;2140128;82;21293;-67
2021/01/02 10:28:03;;;;;;;57.70;24.82;;;;;;;2.17;82.02;98866.13;2160993;82;21175;-64
2021/01/02 10:31:05;;;;;;;115.05;45.33;;;;;;;2.25;81.92;98862.44;2161067;82;21753;-64
2021/01/02 10:34:07;;;;;;;114.15;46.35;;;;;;;2.35;81.75;98863.50;2178153;81;21332;-64
2021/01/02 10:37:10;;;;;;;91.80;37.65;;;;;;;2.41;81.79;98868.51;2178708;82;21574;-72
2021/01/02 10:40:12;;;;;;;66.02;28.23;;;;;;;2.57;81.74;98862.46;2178531;82;21143;-64
2021/01/02 10:43:14;;;;;;;66.35;30.37;;;;;;;2.70;81.50;98863.83;2178558;82;21312;-71
2021/01/02 10:46:17;;;;;;;64.07;28.67;;;;;;;2.78;81.45;98864.90;2178375;82;21684;-72
2021/01/02 10:49:20;;;;;;;60.08;26.60;;;;;;;2.86;81.33;98862.95;2178916;82;21150;-72
2021/01/02 10:52:22;;;;;;;59.53;25.35;;;;;;;2.94;81.28;98857.53;2178627;82;21594;-69
2021/01/02 10:55:24;;;;;;;57.25;26.07;;;;;;;3.07;81.50;98854.97;2178492;82;21281;-71
2021/01/02 10:58:26;;;;;;;55.52;24.87;;;;;;;3.25;81.27;98854.03;2178686;82;21257;-70
2021/01/02 11:01:29;;;;;;;59.10;26.42;;;;;;;3.34;81.06;98846.41;2178450;82;21752;-69
2021/01/02 11:04:31;;;;;;;64.97;27.82;;;;;;;3.38;80.76;98837.65;2178707;82;21261;-66
2021/01/02 11:07:33;;;;;;;63.58;29.63;;;;;;;3.38;80.76;98837.65;2178436;82;21268;-66
2021/01/02 11:10:35;;;;;;;58.68;26.73;;;;;;;3.49;80.55;98849.80;2178649;82;21284;-66
2021/01/02 11:13:37;;;;;;;64.60;28.38;;;;;;;3.50;79.64;98839.83;2178974;82;21157;-69
2021/01/02 11:16:39;;;;;;;63.35;26.80;;;;;;;3.47;80.30;98838.64;2178709;82;21289;-70
2021/01/02 11:19:42;;;;;;;56.35;24.75;;;;;;;3.38;79.65;98836.35;2178817;82;21167;-74
2021/01/02 11:22:44;;;;;;;54.25;25.72;;;;;;;3.34;80.41;98841.23;2178491;82;21257;-65
2021/01/02 11:25:46;;;;;;;53.33;24.45;;;;;;;3.40;80.80;98837.98;2178481;82;21747;-64
2021/01/02 11:28:48;;;;;;;57.90;26.55;;;;;;;3.56;80.37;98836.20;2178910;82;21107;-66
2021/01/02 11:31:50;;;;;;;57.45;25.57;;;;;;;3.51;80.16;98835.52;2176379;82;21663;-65
2021/01/02 11:34:53;;;;;;;58.30;26.95;;;;;;;3.51;80.17;98827.73;2161092;82;21123;-64
2021/01/02 11:37:55;;;;;;;57.80;25.62;;;;;;;3.43;80.11;98835.31;2161059;82;21212;-65
2021/01/02 11:40:57;;;;;;;55.15;25.32;;;;;;;3.36;80.08;98835.11;2161058;82;21234;-63
2021/01/02 11:43:59;;;;;;;57.83;26.30;;;;;;;3.39;80.52;98834.14;2161019;82;21147;-69
2021/01/02 11:47:01;;;;;;;53.50;25.15;;;;;;;3.38;80.04;98826.81;2145838;82;21356;-69
2021/01/02 11:50:04;;;;;;;57.35;24.85;;;;;;;3.31;80.17;98825.78;2124578;83;21729;-65
2021/01/02 11:53:06;;;;;;;56.37;25.52;;;;;;;3.27;80.28;98828.44;2125193;83;21154;-70
2021/01/02 11:56:08;;;;;;;59.48;25.50;;;;;;;3.18;80.22;98818.83;2128138;82;21245;-67
2021/01/02 11:59:10;;;;;;;54.85;24.52;;;;;;;3.11;80.23;98822.88;2143935;81;21685;-66
2021/01/02 12:02:13;;;;;;;56.68;24.65;;;;;;;3.06;80.07;98817.01;2082153;85;21295;-66
2021/01/02 12:05:15;;;;;;;55.45;25.15;;;;;;;2.79;80.48;98822.56;2067643;85;21300;-65
2021/01/02 12:08:18;;;;;;;60.12;27.00;;;;;;;2.75;80.94;98822.25;2082009;85;21204;-65
2021/01/02 12:11:20;;;;;;;59.15;26.10;;;;;;;2.75;81.42;98827.44;2075904;86;21312;-64
2021/01/02 12:14:22;;;;;;;55.80;24.47;;;;;;;2.84;81.23;98828.91;2082719;85;21315;-64
2021/01/02 12:17:25;;;;;;;59.70;25.70;;;;;;;2.91;81.30;98822.19;2082463;85;21304;-64
2021/01/02 12:20:28;;;;;;;54.23;25.10;;;;;;;2.94;81.19;98827.30;2082844;85;21559;-66
2021/01/02 12:23:31;;;;;;;50.38;23.62;;;;;;;2.92;80.99;98835.55;2082362;85;21284;-65
2021/01/02 12:26:34;;;;;;;59.18;26.30;;;;;;;2.87;81.07;98840.01;2062583;85;21343;-70
2021/01/02 12:29:36;;;;;;;57.30;26.42;;;;;;;2.92;81.25;98839.90;2082525;85;21782;-68
2021/01/02 12:32:38;;;;;;;54.98;25.20;;;;;;;2.89;81.15;98831.77;2084537;85;21314;-66
2021/01/02 12:35:40;;;;;;;77.82;35.00;;;;;;;2.91;81.20;98829.13;2107555;84;21303;-64
2021/01/02 12:38:42;;;;;;;67.17;32.78;;;;;;;2.84;80.93;98821.13;2081400;84;21295;-64
2021/01/02 12:41:44;;;;;;;68.65;34.15;;;;;;;2.60;81.40;98820.51;2107703;84;21322;-64
2021/01/02 12:44:49;;;;;;;58.33;28.50;;;;;;;2.63;81.62;98813.11;2108073;84;21166;-64
2021/01/02 12:47:52;;;;;;;69.55;30.43;;;;;;;2.59;81.64;98816.67;2107439;84;21279;-64
2021/01/02 12:50:54;;;;;;;;;;;;;;;2.55;81.70;98818.94;2110679;84;21353;-64
2021/01/02 12:53:56;;;;;;;66.33;29.10;;;;;;;2.46;82.36;98816.59;2085422;85;20276;-64
2021/01/02 12:56:59;;;;;;;54.93;25.37;;;;;;;2.53;82.41;98822.87;2107453;84;21290;-65
2021/01/02 13:00:01;;;;;;;57.00;25.00;;;;;;;2.66;82.47;98819.91;2107543;84;21753;-64
2021/01/02 13:03:03;;;;;;;57.85;27.07;;;;;;;2.78;82.42;98820.86;2108311;84;21309;-65
2021/01/02 13:06:06;;;;;;;64.67;32.17;;;;;;;2.83;82.19;98820.72;2107843;84;21149;-65
2021/01/02 13:09:08;;;;;;;71.35;36.53;;;;;;;2.83;82.08;98823.31;2107894;84;21140;-64
2021/01/02 13:12:10;;;;;;;82.60;42.25;;;;;;;2.77;82.05;98820.45;2108044;84;21195;-64
2021/01/02 13:15:12;;;;;;;66.53;30.55;;;;;;;2.74;82.12;98820.55;2107938;84;21159;-64
2021/01/02 13:18:15;;;;;;;63.73;31.40;;;;;;;2.73;82.27;98825.31;2108138;84;21206;-63
2021/01/02 13:21:17;;;;;;;74.53;32.53;;;;;;;2.63;82.30;98823.46;2107519;84;21282;-65
2021/01/02 13:24:19;;;;;;;60.60;29.27;;;;;;;2.68;82.71;98834.52;2107776;84;21738;-65
2021/01/02 13:27:22;;;;;;;64.37;31.33;;;;;;;2.74;82.38;98834.37;2108032;84;21158;-64
2021/01/02 13:30:24;;;;;;;88.92;42.75;;;;;;;2.81;82.52;98831.12;2107466;84;21668;-64
2021/01/02 13:33:26;;;;;;;75.28;36.70;;;;;;;2.85;82.22;98829.31;2096340;84;21634;-67
2021/01/02 13:36:29;;;;;;;61.10;31.33;;;;;;;2.75;82.31;98834.75;2091959;85;21121;-64
2021/01/02 13:39:31;;;;;;;62.55;30.68;;;;;;;2.70;82.55;98834.05;2076711;86;21189;-64
2021/01/02 13:42:33;;;;;;;65.45;30.50;;;;;;;2.74;82.49;98835.66;2092051;85;21734;-68
2021/01/02 13:45:35;;;;;;;76.10;33.30;;;;;;;2.77;82.53;98843.34;2076803;86;21308;-68
2021/01/02 13:48:37;;;;;;;61.75;29.12;;;;;;;2.83;82.55;98845.33;2091789;85;21173;-65
2021/01/02 13:51:39;;;;;;;64.22;31.33;;;;;;;2.86;82.62;98851.72;2076577;86;21185;-64
2021/01/02 13:54:42;;;;;;;62.53;30.30;;;;;;;2.89;82.61;98857.67;2092077;85;21291;-68
2021/01/02 13:57:44;;;;;;;58.42;29.25;;;;;;;2.91;82.43;98858.46;2077109;86;21320;-66
2021/01/02 14:00:46;;;;;;;61.88;29.10;;;;;;;2.91;82.45;98857.16;2092167;85;21315;-64
2021/01/02 14:03:48;;;;;;;60.78;28.38;;;;;;;2.89;82.46;98860.27;2076913;86;21348;-64
2021/01/02 14:06:50;;;;;;;60.30;30.00;;;;;;;2.89;82.35;98860.27;2091886;85;21146;-64